sensor_id;sensor_type;location;lat;lon;timestamp;P1;P2;P0
65383;PMS5003;51986;52.788;41.368;2023-01-19T00:00:39;0.00;0.00;0.00
65383;PMS5003;51986;52.788;41.368;2023-01-19T00:03:06;0.00;0.00;0.00
65383;PMS5003;51986;52.788;41.368;2023-01-19T00:05:34;0.00;0.00;0.00
65383;PMS5003;51986;52.788;41.368;2023-01-19T00:08:01;0.00;0.00;0.00
65383;PMS5003;51986;52.788;41.368;2023-01-19T00:10:28;0.00;0.00;0.00
65383;PMS5003;51986;52.788;41.368;2023-01-19T00:12:55;0.00;0.00;0.00
65383;PMS5003;51986;52.788;41.368;2023-01-19T00:15:23;0.00;0.00;0.00
65383;PMS5003;51986;52.788;41.368;2023-01-19T00:17:50;0.00;0.00;0.00
65383;PMS5003;51986;52.788;41.368;2023-01-19T00:20:17;0.00;0.00;0.00
65383;PMS5003;51986;52.788;41.368;2023-01-19T00:22:44;1.00;0.00;0.00
65383;PMS5003;51986;52.788;41.368;2023-01-19T00:25:10;0.00;0.00;0.00
65383;PMS5003;51986;52.788;41.368;2023-01-19T00:27:37;0.00;0.00;0.00
65383;PMS5003;51986;52.788;41.368;2023-01-19T00:30:04;0.00;0.00;0.00
65383;PMS5003;51986;52.788;41.368;2023-01-19T00:32:32;0.00;0.00;0.00
65383;PMS5003;51986;52.788;41.368;2023-01-19T00:34:59;0.00;0.00;0.00
65383;PMS5003;51986;52.788;41.368;2023-01-19T00:37:26;0.00;0.00;0.00
65383;PMS5003;51986;52.788;41.368;2023-01-19T00:39:53;0.00;0.00;0.00
65383;PMS5003;51986;52.788;41.368;2023-01-19T00:42:19;1.00;0.00;0.00
65383;PMS5003;51986;52.788;41.368;2023-01-19T00:44:46;0.00;0.00;0.00
65383;PMS5003;51986;52.788;41.368;2023-01-19T00:47:13;0.00;0.00;0.00
65383;PMS5003;51986;52.788;41.368;2023-01-19T00:49:40;0.00;0.00;0.00
65383;PMS5003;51986;52.788;41.368;2023-01-19T00:52:07;0.00;0.00;0.00
65383;PMS5003;51986;52.788;41.368;2023-01-19T00:54:34;0.00;0.00;0.00
65383;PMS5003;51986;52.788;41.368;2023-01-19T00:57:01;0.00;0.00;0.00
65383;PMS5003;51986;52.788;41.368;2023-01-19T00:59:28;0.00;0.00;0.00
65383;PMS5003;51986;52.788;41.368;2023-01-19T01:01:55;0.00;0.00;0.00
65383;PMS5003;51986;52.788;41.368;2023-01-19T01:04:22;0.00;0.00;0.00
65383;PMS5003;51986;52.788;41.368;2023-01-19T01:06:49;0.00;0.00;0.00
65383;PMS5003;51986;52.788;41.368;2023-01-19T01:09:16;0.00;0.00;0.00
65383;PMS5003;51986;52.788;41.368;2023-01-19T01:11:43;0.00;0.00;0.00
65383;PMS5003;51986;52.788;41.368;2023-01-19T01:14:10;0.00;0.00;0.00
65383;PMS5003;51986;52.788;41.368;2023-01-19T01:16:38;0.25;0.00;0.00
65383;PMS5003;51986;52.788;41.368;2023-01-19T01:19:05;0.00;0.00;0.00
65383;PMS5003;51986;52.788;41.368;2023-01-19T01:21:33;0.00;0.00;0.00
65383;PMS5003;51986;52.788;41.368;2023-01-19T01:24:00;1.00;1.00;0.00
65383;PMS5003;51986;52.788;41.368;2023-01-19T01:26:27;1.00;1.00;0.00
65383;PMS5003;51986;52.788;41.368;2023-01-19T01:28:54;0.00;0.00;0.00
65383;PMS5003;51986;52.788;41.368;2023-01-19T01:31:21;0.75;0.75;0.25
65383;PMS5003;51986;52.788;41.368;2023-01-19T01:33:48;2.00;2.00;0.75
65383;PMS5003;51986;52.788;41.368;2023-01-19T01:36:15;0.00;0.00;0.00
65383;PMS5003;51986;52.788;41.368;2023-01-19T01:38:42;0.00;0.00;0.00
65383;PMS5003;51986;52.788;41.368;2023-01-19T01:41:09;0.00;0.00;0.00
65383;PMS5003;51986;52.788;41.368;2023-01-19T01:46:15;1.00;1.00;0.00
65383;PMS5003;51986;52.788;41.368;2023-01-19T01:48:44;0.00;0.00;0.00
65383;PMS5003;51986;52.788;41.368;2023-01-19T01:51:23;0.00;0.00;0.00
65383;PMS5003;51986;52.788;41.368;2023-01-19T01:57:02;0.00;0.00;0.00
65383;PMS5003;51986;52.788;41.368;2023-01-19T01:59:35;0.00;0.00;0.00
65383;PMS5003;51986;52.788;41.368;2023-01-19T02:02:06;0.00;0.00;0.00
65383;PMS5003;51986;52.788;41.368;2023-01-19T02:04:37;0.00;0.00;0.00
65383;PMS5003;51986;52.788;41.368;2023-01-19T02:07:10;0.00;0.00;0.00
65383;PMS5003;51986;52.788;41.368;2023-01-19T02:09:42;1.00;0.00;0.00
65383;PMS5003;51986;52.788;41.368;2023-01-19T02:12:10;0.00;0.00;0.00
65383;PMS5003;51986;52.788;41.368;2023-01-19T02:14:37;1.75;1.00;0.00
65383;PMS5003;51986;52.788;41.368;2023-01-19T02:17:04;1.00;0.00;0.00
65383;PMS5003;51986;52.788;41.368;2023-01-19T02:19:33;0.00;0.00;0.00
65383;PMS5003;51986;52.788;41.368;2023-01-19T02:22:14;0.25;0.25;0.00
65383;PMS5003;51986;52.788;41.368;2023-01-19T02:24:50;0.00;0.00;0.00
65383;PMS5003;51986;52.788;41.368;2023-01-19T02:27:17;0.00;0.00;0.00
65383;PMS5003;51986;52.788;41.368;2023-01-19T02:29:45;0.00;0.00;0.00
65383;PMS5003;51986;52.788;41.368;2023-01-19T02:32:12;0.00;0.00;0.00
65383;PMS5003;51986;52.788;41.368;2023-01-19T02:34:39;0.00;0.00;0.00
65383;PMS5003;51986;52.788;41.368;2023-01-19T02:37:08;0.00;0.00;0.00
65383;PMS5003;51986;52.788;41.368;2023-01-19T02:39:42;0.00;0.00;0.00
65383;PMS5003;51986;52.788;41.368;2023-01-19T02:42:17;0.00;0.00;0.00
65383;PMS5003;51986;52.788;41.368;2023-01-19T02:45:05;0.00;0.00;0.00
65383;PMS5003;51986;52.788;41.368;2023-01-19T02:47:37;1.00;0.00;0.00
65383;PMS5003;51986;52.788;41.368;2023-01-19T02:50:26;0.00;0.00;0.00
65383;PMS5003;51986;52.788;41.368;2023-01-19T02:55:44;0.00;0.00;0.00
65383;PMS5003;51986;52.788;41.368;2023-01-19T02:58:20;0.00;0.00;0.00
65383;PMS5003;51986;52.788;41.368;2023-01-19T03:01:05;0.25;0.00;0.00
65383;PMS5003;51986;52.788;41.368;2023-01-19T03:03:47;0.00;0.00;0.00
65383;PMS5003;51986;52.788;41.368;2023-01-19T03:06:47;0.00;0.00;0.00
65383;PMS5003;51986;52.788;41.368;2023-01-19T03:12:03;0.00;0.00;0.00
65383;PMS5003;51986;52.788;41.368;2023-01-19T03:14:39;0.50;0.00;0.00
65383;PMS5003;51986;52.788;41.368;2023-01-19T03:17:10;0.00;0.00;0.00
65383;PMS5003;51986;52.788;41.368;2023-01-19T03:19:40;0.00;0.00;0.00
65383;PMS5003;51986;52.788;41.368;2023-01-19T03:22:27;0.25;0.00;0.00
65383;PMS5003;51986;52.788;41.368;2023-01-19T03:24:56;1.00;0.75;0.00
65383;PMS5003;51986;52.788;41.368;2023-01-19T03:27:34;0.00;0.00;0.00
65383;PMS5003;51986;52.788;41.368;2023-01-19T03:30:05;1.00;1.00;0.00
65383;PMS5003;51986;52.788;41.368;2023-01-19T03:32:36;0.00;0.00;0.00
65383;PMS5003;51986;52.788;41.368;2023-01-19T03:35:09;1.00;1.00;0.00
65383;PMS5003;51986;52.788;41.368;2023-01-19T03:37:41;0.00;0.00;0.00
65383;PMS5003;51986;52.788;41.368;2023-01-19T03:40:10;0.00;0.00;0.00
65383;PMS5003;51986;52.788;41.368;2023-01-19T03:42:37;1.00;0.00;0.00
65383;PMS5003;51986;52.788;41.368;2023-01-19T03:45:06;1.00;0.00;0.00
65383;PMS5003;51986;52.788;41.368;2023-01-19T03:47:34;0.25;0.25;0.00
65383;PMS5003;51986;52.788;41.368;2023-01-19T03:50:02;2.25;1.00;0.00
65383;PMS5003;51986;52.788;41.368;2023-01-19T03:52:34;1.00;1.00;0.00
65383;PMS5003;51986;52.788;41.368;2023-01-19T03:55:02;2.75;2.00;0.00
65383;PMS5003;51986;52.788;41.368;2023-01-19T03:57:31;0.00;0.00;0.00
65383;PMS5003;51986;52.788;41.368;2023-01-19T03:59:58;0.00;0.00;0.00
65383;PMS5003;51986;52.788;41.368;2023-01-19T04:02:24;0.00;0.00;0.00
65383;PMS5003;51986;52.788;41.368;2023-01-19T04:04:51;0.00;0.00;0.00
65383;PMS5003;51986;52.788;41.368;2023-01-19T04:07:18;1.00;0.50;0.00
65383;PMS5003;51986;52.788;41.368;2023-01-19T04:09:45;0.00;0.00;0.00
65383;PMS5003;51986;52.788;41.368;2023-01-19T04:12:12;0.00;0.00;0.00
65383;PMS5003;51986;52.788;41.368;2023-01-19T04:14:39;0.00;0.00;0.00
65383;PMS5003;51986;52.788;41.368;2023-01-19T04:17:06;0.00;0.00;0.00
65383;PMS5003;51986;52.788;41.368;2023-01-19T04:19:33;0.25;0.00;0.00
65383;PMS5003;51986;52.788;41.368;2023-01-19T04:22:00;0.00;0.00;0.00
65383;PMS5003;51986;52.788;41.368;2023-01-19T04:24:27;0.00;0.00;0.00
65383;PMS5003;51986;52.788;41.368;2023-01-19T04:26:54;1.00;0.00;0.00
65383;PMS5003;51986;52.788;41.368;2023-01-19T04:29:21;0.00;0.00;0.00
65383;PMS5003;51986;52.788;41.368;2023-01-19T04:31:48;1.00;1.00;0.00
65383;PMS5003;51986;52.788;41.368;2023-01-19T04:34:15;1.00;1.00;0.00
65383;PMS5003;51986;52.788;41.368;2023-01-19T04:36:42;2.00;1.00;0.00
65383;PMS5003;51986;52.788;41.368;2023-01-19T04:39:09;1.00;1.00;0.00
65383;PMS5003;51986;52.788;41.368;2023-01-19T04:41:35;0.00;0.00;0.00
65383;PMS5003;51986;52.788;41.368;2023-01-19T04:44:02;1.00;1.00;0.00
65383;PMS5003;51986;52.788;41.368;2023-01-19T04:46:30;2.50;2.50;0.00
65383;PMS5003;51986;52.788;41.368;2023-01-19T04:48:56;3.00;1.00;0.75
65383;PMS5003;51986;52.788;41.368;2023-01-19T04:51:23;1.00;0.00;0.00
65383;PMS5003;51986;52.788;41.368;2023-01-19T04:53:50;0.50;0.00;0.00
65383;PMS5003;51986;52.788;41.368;2023-01-19T04:56:17;1.00;0.75;0.00
65383;PMS5003;51986;52.788;41.368;2023-01-19T04:58:44;1.00;1.00;0.00
65383;PMS5003;51986;52.788;41.368;2023-01-19T05:01:11;1.00;1.00;0.00
65383;PMS5003;51986;52.788;41.368;2023-01-19T05:03:38;1.00;1.00;0.00
65383;PMS5003;51986;52.788;41.368;2023-01-19T05:06:05;1.00;1.00;0.00
65383;PMS5003;51986;52.788;41.368;2023-01-19T05:08:32;1.00;1.00;0.00
65383;PMS5003;51986;52.788;41.368;2023-01-19T05:10:59;0.00;0.00;0.00
65383;PMS5003;51986;52.788;41.368;2023-01-19T05:13:26;0.00;0.00;0.00
65383;PMS5003;51986;52.788;41.368;2023-01-19T05:15:53;1.00;0.00;0.00
65383;PMS5003;51986;52.788;41.368;2023-01-19T05:18:20;0.00;0.00;0.00
65383;PMS5003;51986;52.788;41.368;2023-01-19T05:20:47;0.00;0.00;0.00
65383;PMS5003;51986;52.788;41.368;2023-01-19T05:23:14;1.50;1.00;0.00
65383;PMS5003;51986;52.788;41.368;2023-01-19T05:25:41;0.75;0.00;0.00
65383;PMS5003;51986;52.788;41.368;2023-01-19T05:28:08;1.00;0.25;0.00
65383;PMS5003;51986;52.788;41.368;2023-01-19T05:30:35;1.00;0.00;0.00
65383;PMS5003;51986;52.788;41.368;2023-01-19T05:33:02;3.00;2.50;1.00
65383;PMS5003;51986;52.788;41.368;2023-01-19T05:35:29;3.25;2.75;0.00
65383;PMS5003;51986;52.788;41.368;2023-01-19T05:38:02;2.00;2.00;0.00
65383;PMS5003;51986;52.788;41.368;2023-01-19T05:40:29;3.75;3.00;0.00
65383;PMS5003;51986;52.788;41.368;2023-01-19T05:42:56;3.00;1.00;0.00
65383;PMS5003;51986;52.788;41.368;2023-01-19T05:45:24;3.00;1.00;0.00
65383;PMS5003;51986;52.788;41.368;2023-01-19T05:47:51;1.00;1.00;0.00
65383;PMS5003;51986;52.788;41.368;2023-01-19T05:50:19;1.00;1.00;0.00
65383;PMS5003;51986;52.788;41.368;2023-01-19T05:52:46;1.50;1.00;0.00
65383;PMS5003;51986;52.788;41.368;2023-01-19T05:55:13;1.00;1.00;0.00
65383;PMS5003;51986;52.788;41.368;2023-01-19T05:57:40;1.00;1.00;0.00
65383;PMS5003;51986;52.788;41.368;2023-01-19T06:00:07;1.00;0.00;0.00
65383;PMS5003;51986;52.788;41.368;2023-01-19T06:02:35;1.00;1.00;0.00
65383;PMS5003;51986;52.788;41.368;2023-01-19T06:05:02;1.25;1.00;0.00
65383;PMS5003;51986;52.788;41.368;2023-01-19T06:07:30;1.00;1.00;0.00
65383;PMS5003;51986;52.788;41.368;2023-01-19T06:09:57;1.00;1.00;0.00
65383;PMS5003;51986;52.788;41.368;2023-01-19T06:12:24;1.25;0.75;0.00
65383;PMS5003;51986;52.788;41.368;2023-01-19T06:14:51;1.00;0.00;0.00
65383;PMS5003;51986;52.788;41.368;2023-01-19T06:17:18;1.00;0.00;0.00
65383;PMS5003;51986;52.788;41.368;2023-01-19T06:19:45;2.75;1.00;0.00
65383;PMS5003;51986;52.788;41.368;2023-01-19T06:22:11;3.00;2.00;0.00
65383;PMS5003;51986;52.788;41.368;2023-01-19T06:24:38;1.00;1.00;0.00
65383;PMS5003;51986;52.788;41.368;2023-01-19T06:27:05;0.00;0.00;0.00
65383;PMS5003;51986;52.788;41.368;2023-01-19T06:29:32;2.00;1.00;0.00
65383;PMS5003;51986;52.788;41.368;2023-01-19T06:31:59;1.00;1.00;0.00
65383;PMS5003;51986;52.788;41.368;2023-01-19T06:34:26;2.50;1.00;0.00
65383;PMS5003;51986;52.788;41.368;2023-01-19T06:36:54;1.00;1.00;0.00
65383;PMS5003;51986;52.788;41.368;2023-01-19T06:39:21;1.25;1.00;0.00
65383;PMS5003;51986;52.788;41.368;2023-01-19T06:41:48;2.25;2.00;0.00
65383;PMS5003;51986;52.788;41.368;2023-01-19T06:44:15;3.00;2.75;1.00
65383;PMS5003;51986;52.788;41.368;2023-01-19T06:46:42;3.00;3.00;1.00
65383;PMS5003;51986;52.788;41.368;2023-01-19T06:49:09;4.00;3.00;1.00
65383;PMS5003;51986;52.788;41.368;2023-01-19T06:51:36;5.00;3.75;1.00
65383;PMS5003;51986;52.788;41.368;2023-01-19T06:54:03;3.25;2.25;0.25
65383;PMS5003;51986;52.788;41.368;2023-01-19T06:56:30;3.00;2.00;0.00
65383;PMS5003;51986;52.788;41.368;2023-01-19T06:58:56;3.00;1.25;0.25
65383;PMS5003;51986;52.788;41.368;2023-01-19T07:01:24;1.75;1.50;0.00
65383;PMS5003;51986;52.788;41.368;2023-01-19T07:03:51;3.00;3.00;1.00
65383;PMS5003;51986;52.788;41.368;2023-01-19T07:06:18;3.00;3.00;0.00
65383;PMS5003;51986;52.788;41.368;2023-01-19T07:08:45;1.00;1.00;0.00
65383;PMS5003;51986;52.788;41.368;2023-01-19T07:11:12;1.25;1.25;0.00
65383;PMS5003;51986;52.788;41.368;2023-01-19T07:13:57;2.00;2.00;0.00
65383;PMS5003;51986;52.788;41.368;2023-01-19T07:16:24;3.00;2.00;0.00
65383;PMS5003;51986;52.788;41.368;2023-01-19T07:18:51;1.00;1.00;0.00
65383;PMS5003;51986;52.788;41.368;2023-01-19T07:21:18;1.75;1.00;0.00
65383;PMS5003;51986;52.788;41.368;2023-01-19T07:23:48;1.25;1.00;0.00
65383;PMS5003;51986;52.788;41.368;2023-01-19T07:26:17;3.00;1.00;0.00
65383;PMS5003;51986;52.788;41.368;2023-01-19T07:28:44;1.00;1.00;0.00
65383;PMS5003;51986;52.788;41.368;2023-01-19T07:31:13;3.00;3.00;0.00
65383;PMS5003;51986;52.788;41.368;2023-01-19T07:33:41;2.00;2.00;0.00
65383;PMS5003;51986;52.788;41.368;2023-01-19T07:36:09;3.00;3.00;0.00
65383;PMS5003;51986;52.788;41.368;2023-01-19T07:38:37;1.50;1.00;0.00
65383;PMS5003;51986;52.788;41.368;2023-01-19T07:41:05;1.75;1.25;0.00
65383;PMS5003;51986;52.788;41.368;2023-01-19T07:43:34;2.50;2.00;0.00
65383;PMS5003;51986;52.788;41.368;2023-01-19T07:46:02;3.00;3.00;0.00
65383;PMS5003;51986;52.788;41.368;2023-01-19T07:48:31;2.25;2.25;0.00
65383;PMS5003;51986;52.788;41.368;2023-01-19T07:51:01;4.00;3.00;1.00
65383;PMS5003;51986;52.788;41.368;2023-01-19T07:53:30;3.00;2.75;1.00
65383;PMS5003;51986;52.788;41.368;2023-01-19T07:55:57;3.00;1.75;0.00
65383;PMS5003;51986;52.788;41.368;2023-01-19T07:58:24;3.00;2.00;0.00
65383;PMS5003;51986;52.788;41.368;2023-01-19T08:00:52;2.00;2.00;0.00
65383;PMS5003;51986;52.788;41.368;2023-01-19T08:03:20;3.00;3.00;0.00
65383;PMS5003;51986;52.788;41.368;2023-01-19T08:05:51;2.50;2.25;0.00
65383;PMS5003;51986;52.788;41.368;2023-01-19T08:08:20;2.00;1.00;0.00
65383;PMS5003;51986;52.788;41.368;2023-01-19T08:10:49;3.50;3.00;1.50
65383;PMS5003;51986;52.788;41.368;2023-01-19T08:13:17;4.25;3.25;2.00
65383;PMS5003;51986;52.788;41.368;2023-01-19T08:15:47;5.00;5.00;1.00
65383;PMS5003;51986;52.788;41.368;2023-01-19T08:18:15;6.25;5.00;2.25
65383;PMS5003;51986;52.788;41.368;2023-01-19T08:20:42;3.75;3.00;1.00
65383;PMS5003;51986;52.788;41.368;2023-01-19T08:23:09;3.00;1.00;0.00
65383;PMS5003;51986;52.788;41.368;2023-01-19T08:28:07;5.25;5.00;1.00
65383;PMS5003;51986;52.788;41.368;2023-01-19T08:30:35;3.00;2.00;0.00
65383;PMS5003;51986;52.788;41.368;2023-01-19T08:33:03;5.00;2.25;1.00
65383;PMS5003;51986;52.788;41.368;2023-01-19T08:35:30;5.00;2.75;0.50
65383;PMS5003;51986;52.788;41.368;2023-01-19T08:38:03;2.00;2.00;1.00
65383;PMS5003;51986;52.788;41.368;2023-01-19T08:40:31;2.00;1.00;1.00
65383;PMS5003;51986;52.788;41.368;2023-01-19T08:43:01;3.00;3.00;0.00
65383;PMS5003;51986;52.788;41.368;2023-01-19T08:45:30;1.00;1.00;0.00
65383;PMS5003;51986;52.788;41.368;2023-01-19T08:47:57;4.50;3.00;0.00
65383;PMS5003;51986;52.788;41.368;2023-01-19T08:50:28;5.00;1.25;0.00
65383;PMS5003;51986;52.788;41.368;2023-01-19T08:52:57;2.00;1.00;0.00
65383;PMS5003;51986;52.788;41.368;2023-01-19T08:55:26;3.00;3.00;1.00
65383;PMS5003;51986;52.788;41.368;2023-01-19T08:57:54;3.00;3.00;1.00
65383;PMS5003;51986;52.788;41.368;2023-01-19T09:00:23;4.00;3.00;1.25
65383;PMS5003;51986;52.788;41.368;2023-01-19T09:02:50;3.00;3.00;2.00
65383;PMS5003;51986;52.788;41.368;2023-01-19T09:05:17;1.25;1.00;1.00
65383;PMS5003;51986;52.788;41.368;2023-01-19T09:07:45;3.00;2.00;0.00
65383;PMS5003;51986;52.788;41.368;2023-01-19T09:10:12;4.00;3.00;1.00
65383;PMS5003;51986;52.788;41.368;2023-01-19T09:12:41;5.75;5.00;3.25
65383;PMS5003;51986;52.788;41.368;2023-01-19T09:15:09;6.25;5.00;3.00
65383;PMS5003;51986;52.788;41.368;2023-01-19T09:17:37;3.00;3.00;1.00
65383;PMS5003;51986;52.788;41.368;2023-01-19T09:20:04;3.00;3.00;1.25
65383;PMS5003;51986;52.788;41.368;2023-01-19T09:22:32;3.00;3.00;1.00
65383;PMS5003;51986;52.788;41.368;2023-01-19T09:24:58;4.25;4.00;3.00
65383;PMS5003;51986;52.788;41.368;2023-01-19T09:27:26;3.00;2.50;1.00
65383;PMS5003;51986;52.788;41.368;2023-01-19T09:29:53;3.00;2.00;1.00
65383;PMS5003;51986;52.788;41.368;2023-01-19T09:32:20;5.00;3.50;1.75
65383;PMS5003;51986;52.788;41.368;2023-01-19T09:34:47;5.00;3.75;1.00
65383;PMS5003;51986;52.788;41.368;2023-01-19T09:37:14;3.00;3.00;1.00
65383;PMS5003;51986;52.788;41.368;2023-01-19T09:39:41;3.00;2.00;1.00
65383;PMS5003;51986;52.788;41.368;2023-01-19T09:45:15;5.00;5.00;1.50
65383;PMS5003;51986;52.788;41.368;2023-01-19T09:47:45;5.00;3.25;2.00
65383;PMS5003;51986;52.788;41.368;2023-01-19T09:50:25;4.00;3.00;1.00
65383;PMS5003;51986;52.788;41.368;2023-01-19T09:53:04;4.00;3.00;2.00
65383;PMS5003;51986;52.788;41.368;2023-01-19T09:55:39;6.75;6.00;2.75
65383;PMS5003;51986;52.788;41.368;2023-01-19T09:58:11;8.25;7.00;3.00
65383;PMS5003;51986;52.788;41.368;2023-01-19T10:00:45;5.00;4.00;2.00
65383;PMS5003;51986;52.788;41.368;2023-01-19T10:03:22;5.00;5.00;2.50
65383;PMS5003;51986;52.788;41.368;2023-01-19T10:05:54;6.25;3.25;1.00
65383;PMS5003;51986;52.788;41.368;2023-01-19T10:11:49;6.00;4.50;1.00
65383;PMS5003;51986;52.788;41.368;2023-01-19T10:14:33;6.50;5.00;3.25
65383;PMS5003;51986;52.788;41.368;2023-01-19T10:17:17;5.00;5.00;3.00
65383;PMS5003;51986;52.788;41.368;2023-01-19T10:19:58;7.00;3.50;1.50
65383;PMS5003;51986;52.788;41.368;2023-01-19T10:22:28;6.50;5.00;3.00
65383;PMS5003;51986;52.788;41.368;2023-01-19T10:24:55;7.00;5.00;3.00
65383;PMS5003;51986;52.788;41.368;2023-01-19T10:27:30;10.50;7.75;4.75
65383;PMS5003;51986;52.788;41.368;2023-01-19T10:30:00;9.00;7.00;5.00
65383;PMS5003;51986;52.788;41.368;2023-01-19T10:32:31;8.75;5.00;3.00
65383;PMS5003;51986;52.788;41.368;2023-01-19T10:35:01;7.00;7.00;2.25
65383;PMS5003;51986;52.788;41.368;2023-01-19T10:37:43;7.00;5.75;2.50
65383;PMS5003;51986;52.788;41.368;2023-01-19T10:42:38;5.00;4.00;1.00
65383;PMS5003;51986;52.788;41.368;2023-01-19T10:45:16;6.25;4.25;3.00
65383;PMS5003;51986;52.788;41.368;2023-01-19T10:47:45;6.00;5.00;3.00
65383;PMS5003;51986;52.788;41.368;2023-01-19T10:50:32;5.25;5.00;2.00
65383;PMS5003;51986;52.788;41.368;2023-01-19T10:53:02;5.00;3.50;2.00
65383;PMS5003;51986;52.788;41.368;2023-01-19T10:55:32;5.00;3.25;2.00
65383;PMS5003;51986;52.788;41.368;2023-01-19T10:58:01;7.00;5.50;3.00
65383;PMS5003;51986;52.788;41.368;2023-01-19T11:03:00;7.25;5.50;4.50
65383;PMS5003;51986;52.788;41.368;2023-01-19T11:05:29;8.00;5.75;2.00
65383;PMS5003;51986;52.788;41.368;2023-01-19T11:07:58;8.75;5.00;2.00
65383;PMS5003;51986;52.788;41.368;2023-01-19T11:10:26;9.00;5.00;1.00
65383;PMS5003;51986;52.788;41.368;2023-01-19T11:12:59;7.00;5.75;3.25
65383;PMS5003;51986;52.788;41.368;2023-01-19T11:15:43;10.25;8.50;4.50
65383;PMS5003;51986;52.788;41.368;2023-01-19T11:18:22;13.00;11.00;4.25
65383;PMS5003;51986;52.788;41.368;2023-01-19T11:21:00;11.00;8.00;3.00
65383;PMS5003;51986;52.788;41.368;2023-01-19T11:26:24;12.25;9.00;3.00
65383;PMS5003;51986;52.788;41.368;2023-01-19T11:28:54;12.25;9.00;3.00
65383;PMS5003;51986;52.788;41.368;2023-01-19T11:33:54;9.00;7.00;2.00
65383;PMS5003;51986;52.788;41.368;2023-01-19T11:36:32;11.00;7.00;2.75
65383;PMS5003;51986;52.788;41.368;2023-01-19T11:39:20;10.50;8.50;3.00
65383;PMS5003;51986;52.788;41.368;2023-01-19T11:41:51;12.75;11.50;6.75
65383;PMS5003;51986;52.788;41.368;2023-01-19T11:44:25;13.25;13.00;7.00
65383;PMS5003;51986;52.788;41.368;2023-01-19T11:46:57;14.25;13.00;5.00
65383;PMS5003;51986;52.788;41.368;2023-01-19T11:52:32;12.00;11.00;3.75
65383;PMS5003;51986;52.788;41.368;2023-01-19T11:55:13;11.00;9.00;3.00
65383;PMS5003;51986;52.788;41.368;2023-01-19T11:57:47;9.00;7.00;2.50
65383;PMS5003;51986;52.788;41.368;2023-01-19T12:00:24;12.50;9.00;3.00
65383;PMS5003;51986;52.788;41.368;2023-01-19T12:03:03;9.50;6.75;3.00
65383;PMS5003;51986;52.788;41.368;2023-01-19T12:05:34;11.00;9.00;4.00
65383;PMS5003;51986;52.788;41.368;2023-01-19T12:08:05;11.00;9.00;5.00
65383;PMS5003;51986;52.788;41.368;2023-01-19T12:10:40;7.50;5.50;3.00
65383;PMS5003;51986;52.788;41.368;2023-01-19T12:13:22;7.50;5.75;1.75
65383;PMS5003;51986;52.788;41.368;2023-01-19T12:16:06;11.00;9.00;4.75
65383;PMS5003;51986;52.788;41.368;2023-01-19T12:18:38;10.25;7.00;3.00
65383;PMS5003;51986;52.788;41.368;2023-01-19T12:21:10;9.25;6.50;3.00
65383;PMS5003;51986;52.788;41.368;2023-01-19T12:26:29;9.00;7.00;3.00
65383;PMS5003;51986;52.788;41.368;2023-01-19T12:29:10;10.25;8.00;4.00
65383;PMS5003;51986;52.788;41.368;2023-01-19T12:31:39;11.50;10.25;4.00
65383;PMS5003;51986;52.788;41.368;2023-01-19T12:36:49;11.00;10.00;5.00
65383;PMS5003;51986;52.788;41.368;2023-01-19T12:41:44;12.00;10.00;5.00
65383;PMS5003;51986;52.788;41.368;2023-01-19T12:46:46;9.00;7.00;3.00
65383;PMS5003;51986;52.788;41.368;2023-01-19T13:02:49;11.25;7.75;4.50
65383;PMS5003;51986;52.788;41.368;2023-01-19T13:05:21;9.50;6.50;3.00
65383;PMS5003;51986;52.788;41.368;2023-01-19T13:13:35;12.00;11.00;4.00
65383;PMS5003;51986;52.788;41.368;2023-01-19T13:24:13;5.75;5.00;3.00
65383;PMS5003;51986;52.788;41.368;2023-01-19T13:29:29;8.00;7.00;3.00
65383;PMS5003;51986;52.788;41.368;2023-01-19T13:32:01;11.00;9.00;3.25
65383;PMS5003;51986;52.788;41.368;2023-01-19T13:35:13;9.00;8.00;3.00
65383;PMS5003;51986;52.788;41.368;2023-01-19T13:37:22;10.00;7.00;3.00
65383;PMS5003;51986;52.788;41.368;2023-01-19T13:39:55;11.00;8.00;3.00
65383;PMS5003;51986;52.788;41.368;2023-01-19T13:42:27;8.50;7.00;2.50
65383;PMS5003;51986;52.788;41.368;2023-01-19T13:45:14;8.00;6.75;3.00
65383;PMS5003;51986;52.788;41.368;2023-01-19T13:47:42;9.75;7.00;3.00
65383;PMS5003;51986;52.788;41.368;2023-01-19T13:50:23;7.75;5.00;2.75
65383;PMS5003;51986;52.788;41.368;2023-01-19T13:52:52;7.00;5.00;3.00
65383;PMS5003;51986;52.788;41.368;2023-01-19T13:55:20;6.25;5.00;1.00
65383;PMS5003;51986;52.788;41.368;2023-01-19T13:57:48;5.25;5.00;1.00
65383;PMS5003;51986;52.788;41.368;2023-01-19T14:00:18;7.00;5.00;1.00
65383;PMS5003;51986;52.788;41.368;2023-01-19T14:02:51;5.75;3.25;1.00
65383;PMS5003;51986;52.788;41.368;2023-01-19T14:08:03;4.00;3.00;1.00
65383;PMS5003;51986;52.788;41.368;2023-01-19T14:10:34;6.25;4.00;1.00
65383;PMS5003;51986;52.788;41.368;2023-01-19T14:13:16;4.00;3.00;1.00
65383;PMS5003;51986;52.788;41.368;2023-01-19T14:15:46;6.00;6.00;3.50
65383;PMS5003;51986;52.788;41.368;2023-01-19T14:23:47;5.00;4.00;1.50
65383;PMS5003;51986;52.788;41.368;2023-01-19T14:26:41;8.50;8.25;3.00
65383;PMS5003;51986;52.788;41.368;2023-01-19T14:39:49;8.75;6.50;3.00
65383;PMS5003;51986;52.788;41.368;2023-01-19T14:42:36;7.00;4.50;2.00
65383;PMS5003;51986;52.788;41.368;2023-01-19T14:45:05;5.00;5.00;2.00
65383;PMS5003;51986;52.788;41.368;2023-01-19T14:47:41;5.00;4.00;1.00
65383;PMS5003;51986;52.788;41.368;2023-01-19T14:50:20;7.25;5.00;2.00
65383;PMS5003;51986;52.788;41.368;2023-01-19T14:58:28;10.75;9.75;3.00
65383;PMS5003;51986;52.788;41.368;2023-01-19T15:00:58;10.75;8.25;4.00
65383;PMS5003;51986;52.788;41.368;2023-01-19T15:03:26;9.50;7.00;3.00
65383;PMS5003;51986;52.788;41.368;2023-01-19T15:06:14;9.75;8.00;3.00
65383;PMS5003;51986;52.788;41.368;2023-01-19T15:08:44;5.00;4.25;1.00
65383;PMS5003;51986;52.788;41.368;2023-01-19T15:11:34;8.00;5.00;3.00
65383;PMS5003;51986;52.788;41.368;2023-01-19T15:14:01;8.00;6.25;2.00
65383;PMS5003;51986;52.788;41.368;2023-01-19T15:16:28;7.00;5.00;2.75
65383;PMS5003;51986;52.788;41.368;2023-01-19T15:18:58;9.00;7.00;2.00
65383;PMS5003;51986;52.788;41.368;2023-01-19T15:21:26;7.00;5.00;1.00
65383;PMS5003;51986;52.788;41.368;2023-01-19T15:23:53;7.00;3.25;1.00
65383;PMS5003;51986;52.788;41.368;2023-01-19T15:26:22;9.50;6.50;4.00
65383;PMS5003;51986;52.788;41.368;2023-01-19T15:28:52;11.00;9.00;4.00
65383;PMS5003;51986;52.788;41.368;2023-01-19T15:31:22;9.00;7.00;3.00
65383;PMS5003;51986;52.788;41.368;2023-01-19T15:33:51;10.00;5.00;3.00
65383;PMS5003;51986;52.788;41.368;2023-01-19T15:36:19;8.25;5.00;2.00
65383;PMS5003;51986;52.788;41.368;2023-01-19T15:38:48;11.25;8.00;3.50
65383;PMS5003;51986;52.788;41.368;2023-01-19T15:41:20;9.00;7.00;4.00
65383;PMS5003;51986;52.788;41.368;2023-01-19T15:43:52;10.00;7.50;3.00
65383;PMS5003;51986;52.788;41.368;2023-01-19T15:46:19;9.25;7.00;3.00
65383;PMS5003;51986;52.788;41.368;2023-01-19T15:48:47;11.00;7.25;3.00
65383;PMS5003;51986;52.788;41.368;2023-01-19T15:51:16;9.00;6.00;2.00
65383;PMS5003;51986;52.788;41.368;2023-01-19T15:53:45;10.50;6.00;3.00
65383;PMS5003;51986;52.788;41.368;2023-01-19T15:56:14;11.00;7.00;3.00
65383;PMS5003;51986;52.788;41.368;2023-01-19T15:58:45;10.00;6.50;3.00
65383;PMS5003;51986;52.788;41.368;2023-01-19T16:01:14;9.00;7.00;3.00
65383;PMS5003;51986;52.788;41.368;2023-01-19T16:03:43;9.25;7.75;3.00